Rorichmoor — V2BV7 — position and weather

sailwx.info

Track history (hours):
 
Tides and Currents Weather Stations Pressure Air Temp Water Temp Dewpoint Dewpoint Depression Visibility Wind Speed Wind Dir Waves Ship Positions

Rorichmoor

Last reported at 2017-May-23 23:07 UTC. Time now 2017-May-24 07:58 UTC.
Position N 41°20' E 002°09'.

Length 80 m; draft 4.4 m.

Type: Cargo ship. MMSI: 304938000.

Date/timePositionNaut miles runAvg speedWind from/ knotsBaromVisibWave heightAir tempDewpointWater temp
2017-May-23 23:07N 41°20' E 002°09'0 0.0
2017-May-23 22:49N 41°20' E 002°09'0 0.0
2017-May-23 22:07N 41°20' E 002°09'0 0.0
2017-May-23 21:49N 41°20' E 002°09'0 0.0
2017-May-23 21:19N 41°20' E 002°09'0 0.0
2017-May-23 20:55N 41°20' E 002°09'2 0.1
2017-May-22 16:17N 41°22' E 002°11'  
2017-May-19 23:45N 42°57' E 004°33'2 9.0
2017-May-19 23:30N 42°59' E 004°35'5 9.1
2017-May-19 23:00N 43°02' E 004°39'7 8.9
2017-May-19 22:15N 43°07' E 004°45'4 8.9
2017-May-19 21:49N 43°10' E 004°49'7 9.0
2017-May-19 21:05N 43°15' E 004°54'1 9.2
2017-May-19 21:01N 43°16' E 004°55'6 8.4
2017-May-19 20:18N 43°21' E 004°58'5 8.3
2017-May-19 19:42N 43°23' E 004°52'2 6.5
2017-May-19 19:20N 43°23' E 004°48'0 0.5
2017-May-19 18:52N 43°23' E 004°48'4 9.2
2017-May-19 18:28N 43°25' E 004°45'4 8.9
2017-May-19 18:00N 43°29' E 004°44'1 0.0
2017-May-18 22:24N 43°29' E 004°45'4 7.9
2017-May-18 21:55N 43°25' E 004°45'3 4.1
2017-May-18 21:08N 43°23' E 004°49'0 0.0
2017-May-18 21:00N 43°23' E 004°49'2 4.0
2017-May-18 20:30N 43°23' E 004°51'5 9.4
2017-May-18 20:00N 43°23' E 004°58'5 7.7
2017-May-18 19:23N 43°18' E 004°60'4 8.2
2017-May-18 18:56N 43°15' E 005°01'5 8.4
2017-May-18 18:23N 43°10' E 005°01'5 9.6
2017-May-18 17:52N 43°06' E 004°57'4 9.7
2017-May-18 17:27N 43°03' E 004°54'4 9.6
2017-May-18 17:00N 42°60' E 004°50'5 9.9
2017-May-18 16:30N 42°56' E 004°46'11 9.7
2017-May-18 15:23N 42°47' E 004°37'8 9.9
2017-May-18 14:36N 42°41' E 004°30'6 9.9
2017-May-18 13:59N 42°36' E 004°25'510.0
2017-May-18 13:30N 42°32' E 004°21'510.0
2017-May-18 13:00N 42°29' E 004°17'5 9.9
2017-May-18 12:30N 42°25' E 004°13'8410.0
2017-May-18 04:06N 41°18' E 003°04'110.0
2017-May-18 04:00N 41°17' E 003°03'510.4
2017-May-18 03:29N 41°13' E 002°59'510.2
2017-May-18 03:00N 41°09' E 002°55'510.0
2017-May-18 02:30N 41°05' E 002°51'710.4
2017-May-18 01:49N 40°59' E 002°45'410.6
2017-May-18 01:27N 40°56' E 002°42'510.6
2017-May-18 01:00N 40°52' E 002°38'510.6
2017-May-18 00:30N 40°48' E 002°34'510.7
2017-May-18 00:00N 40°44' E 002°30'510.8
2017-May-17 23:30N 40°40' E 002°25'510.7
2017-May-17 23:00N 40°35' E 002°21'510.5
2017-May-17 22:30N 40°31' E 002°17'510.3
2017-May-17 22:00N 40°27' E 002°13'5 9.9
2017-May-17 21:30N 40°23' E 002°09'5 9.8
2017-May-17 21:00N 40°19' E 002°05'5 9.8
2017-May-17 20:30N 40°15' E 002°01'5 9.8
2017-May-17 20:00N 40°12' E 001°57'5 9.7
2017-May-17 19:30N 40°08' E 001°53'5 9.9
2017-May-17 19:00N 40°04' E 001°49'5 9.9
2017-May-17 18:30N 39°60' E 001°45'5 9.8
2017-May-17 18:00N 39°56' E 001°41'5 9.8
2017-May-17 17:30N 39°52' E 001°37'165 9.9
2017-May-17 00:51N 37°38' W 000°26'  
Track history (hours):
 
Tides and Currents Weather Stations Pressure Air Temp Water Temp Dewpoint Dewpoint Depression Visibility Wind Speed Wind Dir Waves Ship Positions

Rorichmoor

Last reported at 2017-May-23 23:07 UTC. Time now 2017-May-24 07:58 UTC.
Position N 41°20' E 002°09'.

Length 80 m; draft 4.4 m.

Type: Cargo ship. MMSI: 304938000.

Date/timePositionNaut miles runAvg speedWind from/ knotsBaromVisibWave heightAir tempDewpointWater temp
2017-May-23 23:07N 41°20' E 002°09'0 0.0
2017-May-23 22:49N 41°20' E 002°09'0 0.0
2017-May-23 22:07N 41°20' E 002°09'0 0.0
2017-May-23 21:49N 41°20' E 002°09'0 0.0
2017-May-23 21:19N 41°20' E 002°09'0 0.0
2017-May-23 20:55N 41°20' E 002°09'2 0.1
2017-May-22 16:17N 41°22' E 002°11'  
2017-May-19 23:45N 42°57' E 004°33'2 9.0
2017-May-19 23:30N 42°59' E 004°35'5 9.1
2017-May-19 23:00N 43°02' E 004°39'7 8.9
2017-May-19 22:15N 43°07' E 004°45'4 8.9
2017-May-19 21:49N 43°10' E 004°49'7 9.0
2017-May-19 21:05N 43°15' E 004°54'1 9.2
2017-May-19 21:01N 43°16' E 004°55'6 8.4
2017-May-19 20:18N 43°21' E 004°58'5 8.3
2017-May-19 19:42N 43°23' E 004°52'2 6.5
2017-May-19 19:20N 43°23' E 004°48'0 0.5
2017-May-19 18:52N 43°23' E 004°48'4 9.2
2017-May-19 18:28N 43°25' E 004°45'4 8.9
2017-May-19 18:00N 43°29' E 004°44'1 0.0
2017-May-18 22:24N 43°29' E 004°45'4 7.9
2017-May-18 21:55N 43°25' E 004°45'3 4.1
2017-May-18 21:08N 43°23' E 004°49'0 0.0
2017-May-18 21:00N 43°23' E 004°49'2 4.0
2017-May-18 20:30N 43°23' E 004°51'5 9.4
2017-May-18 20:00N 43°23' E 004°58'5 7.7
2017-May-18 19:23N 43°18' E 004°60'4 8.2
2017-May-18 18:56N 43°15' E 005°01'5 8.4
2017-May-18 18:23N 43°10' E 005°01'5 9.6
2017-May-18 17:52N 43°06' E 004°57'4 9.7
2017-May-18 17:27N 43°03' E 004°54'4 9.6
2017-May-18 17:00N 42°60' E 004°50'5 9.9
2017-May-18 16:30N 42°56' E 004°46'11 9.7
2017-May-18 15:23N 42°47' E 004°37'8 9.9
2017-May-18 14:36N 42°41' E 004°30'6 9.9
2017-May-18 13:59N 42°36' E 004°25'510.0
2017-May-18 13:30N 42°32' E 004°21'510.0
2017-May-18 13:00N 42°29' E 004°17'5 9.9
2017-May-18 12:30N 42°25' E 004°13'8410.0
2017-May-18 04:06N 41°18' E 003°04'110.0
2017-May-18 04:00N 41°17' E 003°03'510.4
2017-May-18 03:29N 41°13' E 002°59'510.2
2017-May-18 03:00N 41°09' E 002°55'510.0
2017-May-18 02:30N 41°05' E 002°51'710.4
2017-May-18 01:49N 40°59' E 002°45'410.6
2017-May-18 01:27N 40°56' E 002°42'510.6
2017-May-18 01:00N 40°52' E 002°38'510.6
2017-May-18 00:30N 40°48' E 002°34'510.7
2017-May-18 00:00N 40°44' E 002°30'510.8
2017-May-17 23:30N 40°40' E 002°25'510.7
2017-May-17 23:00N 40°35' E 002°21'510.5
2017-May-17 22:30N 40°31' E 002°17'510.3
2017-May-17 22:00N 40°27' E 002°13'5 9.9
2017-May-17 21:30N 40°23' E 002°09'5 9.8
2017-May-17 21:00N 40°19' E 002°05'5 9.8
2017-May-17 20:30N 40°15' E 002°01'5 9.8
2017-May-17 20:00N 40°12' E 001°57'5 9.7
2017-May-17 19:30N 40°08' E 001°53'5 9.9
2017-May-17 19:00N 40°04' E 001°49'5 9.9
2017-May-17 18:30N 39°60' E 001°45'5 9.8
2017-May-17 18:00N 39°56' E 001°41'5 9.8
2017-May-17 17:30N 39°52' E 001°37'165 9.9
2017-May-17 00:51N 37°38' W 000°26'  

Dump ship's entire track history